Terminal Aerodrome Forecast
Issued by NWS Jackson, MS

Home | Current Version | Previous Version | Text Only | Print | Product List | Glossary On
Versions: 1 2 3 4 5 6 7 8 9 10 11 12 13 14 15 16
000
FTUS44 KMEG 241730
TAFTUP
TAF
KTUP 241730Z 2418/2518 29007KT P6SM SCT020 OVC090
     FM241900 30010G17KT P6SM VCTS BKN040CB
     FM250100 31004KT P6SM SCT050 BKN250
     FM250500 28003KT P6SM SKC
      TEMPO 2509/2512 4SM BR
     FM251200 28005KT P6SM BKN250=

USA.gov is the U.S. government's official web portal to all federal, state and local government web resources and services.